sensor_id;sensor_type;location;lat;lon;timestamp;pressure;altitude;pressure_sealevel;temperature;humidity
10510;BME280;5303;53.266;10.410;2022-12-10T00:00:36;100690.31;;;1.02;100.00
10510;BME280;5303;53.266;10.410;2022-12-10T00:03:02;100690.56;;;0.99;100.00
10510;BME280;5303;53.266;10.410;2022-12-10T00:05:27;100693.00;;;1.02;100.00
10510;BME280;5303;53.266;10.410;2022-12-10T00:07:52;100696.44;;;1.04;100.00
10510;BME280;5303;53.266;10.410;2022-12-10T00:10:18;100691.53;;;0.98;100.00
10510;BME280;5303;53.266;10.410;2022-12-10T00:12:43;100690.22;;;1.03;100.00
10510;BME280;5303;53.266;10.410;2022-12-10T00:15:09;100690.72;;;1.08;100.00
10510;BME280;5303;53.266;10.410;2022-12-10T00:17:34;100690.22;;;1.03;100.00
10510;BME280;5303;53.266;10.410;2022-12-10T00:19:59;100694.47;;;1.06;100.00
10510;BME280;5303;53.266;10.410;2022-12-10T00:22:25;100691.47;;;1.10;100.00
10510;BME280;5303;53.266;10.410;2022-12-10T00:24:50;100694.69;;;1.03;100.00
10510;BME280;5303;53.266;10.410;2022-12-10T00:27:15;100693.00;;;1.02;100.00
10510;BME280;5303;53.266;10.410;2022-12-10T00:29:40;100697.91;;;1.08;100.00
10510;BME280;5303;53.266;10.410;2022-12-10T00:32:06;100702.72;;;0.91;100.00
10510;BME280;5303;53.266;10.410;2022-12-10T00:34:31;100696.50;;;0.91;100.00
10510;BME280;5303;53.266;10.410;2022-12-10T00:36:56;100700.19;;;1.01;100.00
10510;BME280;5303;53.266;10.410;2022-12-10T00:39:22;100697.75;;;0.98;100.00
10510;BME280;5303;53.266;10.410;2022-12-10T00:41:48;100701.00;;;0.90;100.00
10510;BME280;5303;53.266;10.410;2022-12-10T00:44:14;100706.41;;;1.02;100.00
10510;BME280;5303;53.266;10.410;2022-12-10T00:46:39;100709.50;;;1.08;100.00
10510;BME280;5303;53.266;10.410;2022-12-10T00:49:05;100706.31;;;1.03;100.00
10510;BME280;5303;53.266;10.410;2022-12-10T00:51:30;100700.56;;;0.97;100.00
10510;BME280;5303;53.266;10.410;2022-12-10T00:53:57;100704.13;;;1.08;100.00
10510;BME280;5303;53.266;10.410;2022-12-10T00:56:25;100698.66;;;1.10;100.00
10510;BME280;5303;53.266;10.410;2022-12-10T00:58:51;100700.38;;;1.11;100.00
10510;BME280;5303;53.266;10.410;2022-12-10T01:01:20;100700.06;;;1.03;100.00
10510;BME280;5303;53.266;10.410;2022-12-10T01:03:48;100692.16;;;1.01;100.00
10510;BME280;5303;53.266;10.410;2022-12-10T01:08:41;100706.25;;;1.16;100.00
10510;BME280;5303;53.266;10.410;2022-12-10T01:11:08;100705.03;;;1.20;100.00
10510;BME280;5303;53.266;10.410;2022-12-10T01:13:33;100706.75;;;1.21;100.00
10510;BME280;5303;53.266;10.410;2022-12-10T01:16:03;100714.78;;;1.21;100.00
10510;BME280;5303;53.266;10.410;2022-12-10T01:18:30;100710.88;;;1.14;100.00
10510;BME280;5303;53.266;10.410;2022-12-10T01:21:00;100718.22;;;1.23;100.00
10510;BME280;5303;53.266;10.410;2022-12-10T01:23:26;100715.03;;;1.18;100.00
10510;BME280;5303;53.266;10.410;2022-12-10T01:25:52;100711.06;;;1.00;100.00
10510;BME280;5303;53.266;10.410;2022-12-10T01:28:17;100716.06;;;1.04;100.00
10510;BME280;5303;53.266;10.410;2022-12-10T01:30:42;100714.75;;;1.10;100.00
10510;BME280;5303;53.266;10.410;2022-12-10T01:33:07;100718.97;;;1.01;100.00
10510;BME280;5303;53.266;10.410;2022-12-10T01:35:36;100715.84;;;1.07;100.00
10510;BME280;5303;53.266;10.410;2022-12-10T01:38:01;100712.31;;;1.07;100.00
10510;BME280;5303;53.266;10.410;2022-12-10T01:40:27;100718.63;;;1.06;100.00
10510;BME280;5303;53.266;10.410;2022-12-10T01:42:52;100711.09;;;1.11;100.00
10510;BME280;5303;53.266;10.410;2022-12-10T01:45:21;100718.63;;;1.06;100.00
10510;BME280;5303;53.266;10.410;2022-12-10T01:47:46;100716.91;;;1.05;100.00
10510;BME280;5303;53.266;10.410;2022-12-10T01:50:12;100715.88;;;1.19;100.00
10510;BME280;5303;53.266;10.410;2022-12-10T01:52:38;100709.50;;;1.08;100.00
10510;BME280;5303;53.266;10.410;2022-12-10T01:55:08;100709.00;;;1.03;100.00
10510;BME280;5303;53.266;10.410;2022-12-10T01:57:33;100711.28;;;0.97;100.00
10510;BME280;5303;53.266;10.410;2022-12-10T02:00:02;100720.34;;;1.07;100.00
10510;BME280;5303;53.266;10.410;2022-12-10T02:02:42;100717.19;;;0.89;100.00
10510;BME280;5303;53.266;10.410;2022-12-10T02:05:27;100719.13;;;0.63;100.00
10510;BME280;5303;53.266;10.410;2022-12-10T02:13:29;100711.50;;;0.93;100.00
10510;BME280;5303;53.266;10.410;2022-12-10T02:18:37;100711.50;;;0.93;100.00
10510;BME280;5303;53.266;10.410;2022-12-10T02:21:07;100708.47;;;0.98;100.00
10510;BME280;5303;53.266;10.410;2022-12-10T02:23:40;100704.97;;;1.09;100.00
10510;BME280;5303;53.266;10.410;2022-12-10T02:26:36;100704.88;;;1.10;100.00
10510;BME280;5303;53.266;10.410;2022-12-10T02:29:24;100710.16;;;0.99;100.00
10510;BME280;5303;53.266;10.410;2022-12-10T02:32:43;100716.41;;;1.00;100.00
10510;BME280;5303;53.266;10.410;2022-12-10T02:35:05;100720.56;;;1.04;100.00
10510;BME280;5303;53.266;10.410;2022-12-10T02:37:35;100720.22;;;1.08;100.00
10510;BME280;5303;53.266;10.410;2022-12-10T02:40:07;100725.53;;;0.97;100.00
10510;BME280;5303;53.266;10.410;2022-12-10T02:42:38;100728.94;;;0.99;100.00
10510;BME280;5303;53.266;10.410;2022-12-10T02:45:05;100734.13;;;0.89;100.00
10510;BME280;5303;53.266;10.410;2022-12-10T02:47:32;100736.81;;;0.89;100.00
10510;BME280;5303;53.266;10.410;2022-12-10T02:49:58;100737.22;;;0.72;100.00
10510;BME280;5303;53.266;10.410;2022-12-10T02:52:24;100730.91;;;0.97;100.00
10510;BME280;5303;53.266;10.410;2022-12-10T02:54:50;100733.00;;;1.05;100.00
10510;BME280;5303;53.266;10.410;2022-12-10T02:57:33;100728.84;;;1.01;100.00
10510;BME280;5303;53.266;10.410;2022-12-10T03:00:10;100731.69;;;0.86;100.00
10510;BME280;5303;53.266;10.410;2022-12-10T03:05:50;100730.00;;;0.49;100.00
10510;BME280;5303;53.266;10.410;2022-12-10T03:08:22;100728.56;;;0.56;100.00
10510;BME280;5303;53.266;10.410;2022-12-10T03:11:11;100729.63;;;0.66;100.00
10510;BME280;5303;53.266;10.410;2022-12-10T03:13:51;100723.59;;;0.75;100.00
10510;BME280;5303;53.266;10.410;2022-12-10T03:16:20;100725.28;;;0.76;100.00
10510;BME280;5303;53.266;10.410;2022-12-10T03:18:49;100727.88;;;0.78;100.00
10510;BME280;5303;53.266;10.410;2022-12-10T03:21:16;100728.53;;;0.92;100.00
10510;BME280;5303;53.266;10.410;2022-12-10T03:23:44;100735.88;;;0.90;100.00
10510;BME280;5303;53.266;10.410;2022-12-10T03:26:11;100739.81;;;0.98;100.00
10510;BME280;5303;53.266;10.410;2022-12-10T03:28:45;100739.34;;;1.04;100.00
10510;BME280;5303;53.266;10.410;2022-12-10T03:31:13;100729.03;;;1.10;100.00
10510;BME280;5303;53.266;10.410;2022-12-10T03:33:39;100739.53;;;1.13;100.00
10510;BME280;5303;53.266;10.410;2022-12-10T03:36:06;100734.38;;;1.10;100.00
10510;BME280;5303;53.266;10.410;2022-12-10T03:38:33;100734.88;;;1.15;100.00
10510;BME280;5303;53.266;10.410;2022-12-10T03:40:59;100727.47;;;1.19;100.00
10510;BME280;5303;53.266;10.410;2022-12-10T03:43:25;100735.53;;;1.19;100.00
10510;BME280;5303;53.266;10.410;2022-12-10T03:45:50;100728.19;;;1.21;100.00
10510;BME280;5303;53.266;10.410;2022-12-10T03:48:16;100731.63;;;1.23;100.00
10510;BME280;5303;53.266;10.410;2022-12-10T03:50:41;100736.78;;;1.02;100.00
10510;BME280;5303;53.266;10.410;2022-12-10T03:53:06;100732.34;;;0.90;100.00
10510;BME280;5303;53.266;10.410;2022-12-10T03:55:31;100740.59;;;0.87;100.00
10510;BME280;5303;53.266;10.410;2022-12-10T03:57:58;100731.59;;;0.88;100.00
10510;BME280;5303;53.266;10.410;2022-12-10T04:00:23;100729.53;;;0.91;100.00
10510;BME280;5303;53.266;10.410;2022-12-10T04:02:48;100729.16;;;0.96;100.00
10510;BME280;5303;53.266;10.410;2022-12-10T04:05:14;100729.41;;;0.93;100.00
10510;BME280;5303;53.266;10.410;2022-12-10T04:07:39;100733.22;;;1.02;100.00
10510;BME280;5303;53.266;10.410;2022-12-10T04:10:04;100732.03;;;1.06;100.00
10510;BME280;5303;53.266;10.410;2022-12-10T04:12:30;100729.88;;;1.11;100.00
10510;BME280;5303;53.266;10.410;2022-12-10T04:14:55;100729.41;;;1.17;100.00
10510;BME280;5303;53.266;10.410;2022-12-10T04:17:39;100728.56;;;1.16;100.00
10510;BME280;5303;53.266;10.410;2022-12-10T04:20:05;100730.41;;;1.16;100.00
10510;BME280;5303;53.266;10.410;2022-12-10T04:22:30;100723.91;;;1.19;100.00
10510;BME280;5303;53.266;10.410;2022-12-10T04:25:14;100731.34;;;1.15;100.00
10510;BME280;5303;53.266;10.410;2022-12-10T04:27:58;100724.66;;;1.21;100.00
10510;BME280;5303;53.266;10.410;2022-12-10T04:30:24;100730.78;;;1.23;100.00
10510;BME280;5303;53.266;10.410;2022-12-10T04:32:49;100726.28;;;1.23;100.00
10510;BME280;5303;53.266;10.410;2022-12-10T04:35:14;100730.66;;;1.24;100.00
10510;BME280;5303;53.266;10.410;2022-12-10T04:37:40;100727.28;;;1.33;100.00
10510;BME280;5303;53.266;10.410;2022-12-10T04:40:06;100722.16;;;1.30;100.00
10510;BME280;5303;53.266;10.410;2022-12-10T04:42:31;100719.69;;;1.27;100.00
10510;BME280;5303;53.266;10.410;2022-12-10T04:44:57;100718.72;;;1.28;100.00
10510;BME280;5303;53.266;10.410;2022-12-10T04:47:22;100725.44;;;1.34;100.00
10510;BME280;5303;53.266;10.410;2022-12-10T04:49:47;100733.72;;;1.31;100.00
10510;BME280;5303;53.266;10.410;2022-12-10T04:52:14;100736.41;;;1.31;100.00
10510;BME280;5303;53.266;10.410;2022-12-10T04:54:40;100733.09;;;1.27;100.00
10510;BME280;5303;53.266;10.410;2022-12-10T04:57:06;100736.03;;;1.24;100.00
10510;BME280;5303;53.266;10.410;2022-12-10T04:59:32;100737.97;;;1.22;100.00
10510;BME280;5303;53.266;10.410;2022-12-10T05:01:57;100731.50;;;1.25;100.00
10510;BME280;5303;53.266;10.410;2022-12-10T05:04:22;100745.13;;;1.10;100.00
10510;BME280;5303;53.266;10.410;2022-12-10T05:06:48;100740.59;;;1.11;100.00
10510;BME280;5303;53.266;10.410;2022-12-10T05:09:14;100743.97;;;1.02;100.00
10510;BME280;5303;53.266;10.410;2022-12-10T05:11:40;100747.16;;;1.07;100.00
10510;BME280;5303;53.266;10.410;2022-12-10T05:14:05;100743.19;;;1.12;100.00
10510;BME280;5303;53.266;10.410;2022-12-10T05:16:32;100746.81;;;1.11;100.00
10510;BME280;5303;53.266;10.410;2022-12-10T05:18:58;100748.13;;;1.06;100.00
10510;BME280;5303;53.266;10.410;2022-12-10T05:21:26;100747.66;;;1.12;100.00
10510;BME280;5303;53.266;10.410;2022-12-10T05:24:10;100748.72;;;1.22;100.00
10510;BME280;5303;53.266;10.410;2022-12-10T05:26:35;100743.63;;;1.06;100.00
10510;BME280;5303;53.266;10.410;2022-12-10T05:29:01;100740.44;;;1.01;100.00
10510;BME280;5303;53.266;10.410;2022-12-10T05:31:28;100749.41;;;0.76;100.00
10510;BME280;5303;53.266;10.410;2022-12-10T05:33:54;100751.66;;;0.82;100.00
10510;BME280;5303;53.266;10.410;2022-12-10T05:36:23;100746.06;;;0.85;100.00
10510;BME280;5303;53.266;10.410;2022-12-10T05:38:49;100738.63;;;0.65;100.00
10510;BME280;5303;53.266;10.410;2022-12-10T05:41:20;100744.34;;;0.47;100.00
10510;BME280;5303;53.266;10.410;2022-12-10T05:43:46;100755.47;;;0.54;100.00
10510;BME280;5303;53.266;10.410;2022-12-10T05:46:14;100748.91;;;0.71;100.00
10510;BME280;5303;53.266;10.410;2022-12-10T05:48:40;100748.00;;;0.83;100.00
10510;BME280;5303;53.266;10.410;2022-12-10T05:51:11;100751.16;;;0.77;100.00
10510;BME280;5303;53.266;10.410;2022-12-10T05:53:37;100747.19;;;0.70;100.00
10510;BME280;5303;53.266;10.410;2022-12-10T05:56:14;100746.38;;;0.57;100.00
10510;BME280;5303;53.266;10.410;2022-12-10T05:58:42;100747.84;;;0.61;100.00
10510;BME280;5303;53.266;10.410;2022-12-10T06:01:16;100745.25;;;0.72;100.00
10510;BME280;5303;53.266;10.410;2022-12-10T06:03:42;100745.44;;;0.82;100.00
10510;BME280;5303;53.266;10.410;2022-12-10T06:06:08;100746.25;;;0.95;100.00
10510;BME280;5303;53.266;10.410;2022-12-10T06:08:34;100743.91;;;0.90;100.00
10510;BME280;5303;53.266;10.410;2022-12-10T06:11:02;100744.75;;;0.91;100.00
10510;BME280;5303;53.266;10.410;2022-12-10T06:13:27;100749.78;;;0.96;100.00
10510;BME280;5303;53.266;10.410;2022-12-10T06:15:52;100745.66;;;1.03;100.00
10510;BME280;5303;53.266;10.410;2022-12-10T06:18:18;100754.25;;;0.84;100.00
10510;BME280;5303;53.266;10.410;2022-12-10T06:20:43;100751.28;;;0.63;100.00
10510;BME280;5303;53.266;10.410;2022-12-10T06:23:08;100755.44;;;0.67;100.00
10510;BME280;5303;53.266;10.410;2022-12-10T06:25:37;100754.72;;;0.65;100.00
10510;BME280;5303;53.266;10.410;2022-12-10T06:28:03;100757.78;;;0.84;100.00
10510;BME280;5303;53.266;10.410;2022-12-10T06:30:28;100760.00;;;0.90;100.00
10510;BME280;5303;53.266;10.410;2022-12-10T06:32:54;100762.97;;;0.99;100.00
10510;BME280;5303;53.266;10.410;2022-12-10T06:35:19;100762.63;;;1.03;100.00
10510;BME280;5303;53.266;10.410;2022-12-10T06:37:44;100761.88;;;1.01;100.00
10510;BME280;5303;53.266;10.410;2022-12-10T06:40:10;100768.53;;;0.96;100.00
10510;BME280;5303;53.266;10.410;2022-12-10T06:42:35;100771.69;;;0.89;100.00
10510;BME280;5303;53.266;10.410;2022-12-10T06:45:01;100772.22;;;0.95;100.00
10510;BME280;5303;53.266;10.410;2022-12-10T06:47:26;100774.94;;;0.82;100.00
10510;BME280;5303;53.266;10.410;2022-12-10T06:49:51;100783.97;;;0.68;100.00
10510;BME280;5303;53.266;10.410;2022-12-10T06:52:17;100784.44;;;0.62;100.00
10510;BME280;5303;53.266;10.410;2022-12-10T06:54:42;100784.84;;;0.68;100.00
10510;BME280;5303;53.266;10.410;2022-12-10T06:57:07;100789.00;;;0.73;100.00
10510;BME280;5303;53.266;10.410;2022-12-10T06:59:33;100792.41;;;0.87;100.00
10510;BME280;5303;53.266;10.410;2022-12-10T07:01:58;100795.50;;;0.94;100.00
10510;BME280;5303;53.266;10.410;2022-12-10T07:04:23;100799.03;;;0.95;100.00
10510;BME280;5303;53.266;10.410;2022-12-10T07:06:49;100797.31;;;0.93;100.00
10510;BME280;5303;53.266;10.410;2022-12-10T07:09:14;100796.75;;;1.01;100.00
10510;BME280;5303;53.266;10.410;2022-12-10T07:11:41;100797.50;;;1.03;100.00
10510;BME280;5303;53.266;10.410;2022-12-10T07:14:07;100797.69;;;1.13;100.00
10510;BME280;5303;53.266;10.410;2022-12-10T07:16:32;100799.25;;;1.15;100.00
10510;BME280;5303;53.266;10.410;2022-12-10T07:19:00;100802.59;;;1.19;100.00
10510;BME280;5303;53.266;10.410;2022-12-10T07:21:29;100798.63;;;1.12;100.00
10510;BME280;5303;53.266;10.410;2022-12-10T07:23:56;100803.06;;;1.13;100.00
10510;BME280;5303;53.266;10.410;2022-12-10T07:26:28;100801.84;;;1.17;100.00
10510;BME280;5303;53.266;10.410;2022-12-10T07:28:53;100801.22;;;1.13;100.00
10510;BME280;5303;53.266;10.410;2022-12-10T07:31:20;100805.44;;;1.05;100.00
10510;BME280;5303;53.266;10.410;2022-12-10T07:33:46;100810.25;;;1.12;100.00
10510;BME280;5303;53.266;10.410;2022-12-10T07:36:12;100809.66;;;1.20;100.00
10510;BME280;5303;53.266;10.410;2022-12-10T07:38:39;100812.44;;;1.19;100.00
10510;BME280;5303;53.266;10.410;2022-12-10T07:41:06;100814.84;;;1.10;100.00
10510;BME280;5303;53.266;10.410;2022-12-10T07:43:35;100809.38;;;1.12;100.00
10510;BME280;5303;53.266;10.410;2022-12-10T07:46:13;100814.91;;;1.22;100.00
10510;BME280;5303;53.266;10.410;2022-12-10T07:48:40;100809.22;;;1.26;100.00
10510;BME280;5303;53.266;10.410;2022-12-10T07:51:06;100814.47;;;1.28;100.00
10510;BME280;5303;53.266;10.410;2022-12-10T07:53:32;100813.38;;;1.30;100.00
10510;BME280;5303;53.266;10.410;2022-12-10T07:55:57;100811.44;;;1.32;100.00
10510;BME280;5303;53.266;10.410;2022-12-10T07:58:23;100813.38;;;1.30;100.00
10510;BME280;5303;53.266;10.410;2022-12-10T08:00:48;100822.19;;;1.32;100.00
10510;BME280;5303;53.266;10.410;2022-12-10T08:03:13;100822.09;;;1.21;100.00
10510;BME280;5303;53.266;10.410;2022-12-10T08:05:39;100822.50;;;1.28;100.00
10510;BME280;5303;53.266;10.410;2022-12-10T08:08:04;100824.03;;;1.32;100.00
10510;BME280;5303;53.266;10.410;2022-12-10T08:10:30;100831.41;;;1.28;100.00
10510;BME280;5303;53.266;10.410;2022-12-10T08:12:58;100834.75;;;1.32;100.00
10510;BME280;5303;53.266;10.410;2022-12-10T08:15:23;100827.03;;;1.27;100.00
10510;BME280;5303;53.266;10.410;2022-12-10T08:17:48;100842.03;;;1.30;100.00
10510;BME280;5303;53.266;10.410;2022-12-10T08:20:13;100846.34;;;1.32;100.00
10510;BME280;5303;53.266;10.410;2022-12-10T08:22:39;100845.31;;;1.22;100.00
10510;BME280;5303;53.266;10.410;2022-12-10T08:25:04;100839.75;;;1.12;100.00
10510;BME280;5303;53.266;10.410;2022-12-10T08:27:30;100851.91;;;0.92;100.00
10510;BME280;5303;53.266;10.410;2022-12-10T08:29:55;100847.28;;;1.07;100.00
10510;BME280;5303;53.266;10.410;2022-12-10T08:32:20;100854.69;;;1.04;100.00
10510;BME280;5303;53.266;10.410;2022-12-10T08:34:46;100843.16;;;1.14;100.00
10510;BME280;5303;53.266;10.410;2022-12-10T08:37:11;100844.31;;;1.23;100.00
10510;BME280;5303;53.266;10.410;2022-12-10T08:39:36;100847.84;;;1.24;100.00
10510;BME280;5303;53.266;10.410;2022-12-10T08:42:02;100849.34;;;1.28;100.00
10510;BME280;5303;53.266;10.410;2022-12-10T08:44:27;100855.25;;;1.33;100.00
10510;BME280;5303;53.266;10.410;2022-12-10T08:46:53;100861.44;;;1.33;100.00
10510;BME280;5303;53.266;10.410;2022-12-10T08:49:18;100857.13;;;1.44;100.00
10510;BME280;5303;53.266;10.410;2022-12-10T08:51:45;100857.56;;;1.37;100.00
10510;BME280;5303;53.266;10.410;2022-12-10T08:54:10;100859.06;;;1.42;100.00
10510;BME280;5303;53.266;10.410;2022-12-10T08:56:35;100860.44;;;1.47;100.00
10510;BME280;5303;53.266;10.410;2022-12-10T08:59:01;100860.88;;;1.41;100.00
10510;BME280;5303;53.266;10.410;2022-12-10T09:01:26;100859.34;;;1.50;100.00
10510;BME280;5303;53.266;10.410;2022-12-10T09:03:51;100861.06;;;1.51;100.00
10510;BME280;5303;53.266;10.410;2022-12-10T09:06:20;100867.56;;;1.35;100.00
10510;BME280;5303;53.266;10.410;2022-12-10T09:08:46;100861.06;;;1.27;100.00
10510;BME280;5303;53.266;10.410;2022-12-10T09:11:17;100869.34;;;1.11;100.00
10510;BME280;5303;53.266;10.410;2022-12-10T09:13:43;100871.25;;;0.72;100.00
10510;BME280;5303;53.266;10.410;2022-12-10T09:16:09;100877.69;;;0.69;100.00
10510;BME280;5303;53.266;10.410;2022-12-10T09:18:34;100868.34;;;0.75;100.00
10510;BME280;5303;53.266;10.410;2022-12-10T09:21:00;100877.47;;;0.85;100.00
10510;BME280;5303;53.266;10.410;2022-12-10T09:23:29;100875.56;;;0.75;100.00
10510;BME280;5303;53.266;10.410;2022-12-10T09:25:54;100876.47;;;0.86;100.00
10510;BME280;5303;53.266;10.410;2022-12-10T09:28:19;100886.03;;;1.03;100.00
10510;BME280;5303;53.266;10.410;2022-12-10T09:30:44;100882.25;;;0.93;100.00
10510;BME280;5303;53.266;10.410;2022-12-10T09:33:10;100890.78;;;0.61;100.00
10510;BME280;5303;53.266;10.410;2022-12-10T09:35:39;100887.44;;;0.58;100.00
10510;BME280;5303;53.266;10.410;2022-12-10T09:38:05;100888.53;;;0.42;100.00
10510;BME280;5303;53.266;10.410;2022-12-10T09:41:01;100893.69;;;0.58;100.00
10510;BME280;5303;53.266;10.410;2022-12-10T09:46:06;100898.25;;;0.18;100.00
10510;BME280;5303;53.266;10.410;2022-12-10T09:51:22;100896.41;;;0.06;100.00
10510;BME280;5303;53.266;10.410;2022-12-10T09:53:49;100897.06;;;0.22;100.00
10510;BME280;5303;53.266;10.410;2022-12-10T09:56:26;100903.81;;;0.15;100.00
10510;BME280;5303;53.266;10.410;2022-12-10T09:58:53;100890.44;;;0.28;100.00
10510;BME280;5303;53.266;10.410;2022-12-10T10:01:23;100889.78;;;0.24;100.00
10510;BME280;5303;53.266;10.410;2022-12-10T10:03:50;100898.34;;;0.04;100.00
10510;BME280;5303;53.266;10.410;2022-12-10T10:06:15;100895.38;;;-0.19;100.00
10510;BME280;5303;53.266;10.410;2022-12-10T10:08:44;100894.88;;;-0.11;100.00
10510;BME280;5303;53.266;10.410;2022-12-10T10:11:25;100894.06;;;0.14;100.00
10510;BME280;5303;53.266;10.410;2022-12-10T10:13:58;100890.75;;;0.23;100.00
10510;BME280;5303;53.266;10.410;2022-12-10T10:16:30;100885.28;;;0.37;100.00
10510;BME280;5303;53.266;10.410;2022-12-10T10:19:14;100893.34;;;0.37;100.00
10510;BME280;5303;53.266;10.410;2022-12-10T10:21:42;100888.63;;;0.54;100.00
10510;BME280;5303;53.266;10.410;2022-12-10T10:24:13;100883.16;;;0.42;100.00
10510;BME280;5303;53.266;10.410;2022-12-10T10:26:39;100882.97;;;0.58;100.00
10510;BME280;5303;53.266;10.410;2022-12-10T10:29:07;100880.06;;;0.61;100.00
10510;BME280;5303;53.266;10.410;2022-12-10T10:31:35;100880.91;;;0.49;100.00
10510;BME280;5303;53.266;10.410;2022-12-10T10:34:06;100883.69;;;0.47;100.00
10510;BME280;5303;53.266;10.410;2022-12-10T10:36:37;100889.25;;;0.44;100.00
10510;BME280;5303;53.266;10.410;2022-12-10T10:41:41;100890.88;;;0.73;100.00
10510;BME280;5303;53.266;10.410;2022-12-10T10:44:19;100891.28;;;0.79;100.00
10510;BME280;5303;53.266;10.410;2022-12-10T10:46:48;100886.13;;;0.89;100.00
10510;BME280;5303;53.266;10.410;2022-12-10T10:49:31;100894.81;;;0.92;100.00
10510;BME280;5303;53.266;10.410;2022-12-10T10:52:15;100891.81;;;0.97;100.00
10510;BME280;5303;53.266;10.410;2022-12-10T10:54:43;100894.41;;;0.86;100.00
10510;BME280;5303;53.266;10.410;2022-12-10T10:57:23;100893.44;;;0.87;100.00
10510;BME280;5303;53.266;10.410;2022-12-10T11:00:35;100890.66;;;0.88;100.00
10510;BME280;5303;53.266;10.410;2022-12-10T11:02:37;100892.34;;;0.89;100.00
10510;BME280;5303;53.266;10.410;2022-12-10T11:05:14;100889.03;;;0.73;100.00
10510;BME280;5303;53.266;10.410;2022-12-10T11:07:40;100887.31;;;0.98;100.00
10510;BME280;5303;53.266;10.410;2022-12-10T11:10:23;100885.28;;;0.88;100.00
10510;BME280;5303;53.266;10.410;2022-12-10T11:12:55;100885.41;;;0.87;100.00
10510;BME280;5303;53.266;10.410;2022-12-10T11:17:54;100881.50;;;1.04;100.00
10510;BME280;5303;53.266;10.410;2022-12-10T11:20:23;100884.47;;;1.12;100.00
10510;BME280;5303;53.266;10.410;2022-12-10T11:22:51;100881.25;;;1.20;100.00
10510;BME280;5303;53.266;10.410;2022-12-10T11:25:19;100879.66;;;1.17;100.00
10510;BME280;5303;53.266;10.410;2022-12-10T11:31:17;100866.41;;;1.27;100.00
10510;BME280;5303;53.266;10.410;2022-12-10T11:33:49;100872.84;;;1.24;100.00
10510;BME280;5303;53.266;10.410;2022-12-10T11:39:01;100873.22;;;1.20;100.00
10510;BME280;5303;53.266;10.410;2022-12-10T11:41:31;100866.50;;;1.25;100.00
10510;BME280;5303;53.266;10.410;2022-12-10T11:44:11;100872.84;;;1.24;100.00
10510;BME280;5303;53.266;10.410;2022-12-10T11:49:35;100880.03;;;1.00;100.00
10510;BME280;5303;53.266;10.410;2022-12-10T11:52:32;100873.88;;;1.10;100.00
10510;BME280;5303;53.266;10.410;2022-12-10T11:55:12;100874.69;;;1.24;100.00
10510;BME280;5303;53.266;10.410;2022-12-10T12:00:23;100871.22;;;1.34;100.00
10510;BME280;5303;53.266;10.410;2022-12-10T12:06:02;100870.44;;;1.45;100.00
10510;BME280;5303;53.266;10.410;2022-12-10T12:08:55;100865.69;;;1.49;100.00
10510;BME280;5303;53.266;10.410;2022-12-10T12:11:36;100860.59;;;1.57;100.00
10510;BME280;5303;53.266;10.410;2022-12-10T12:14:10;100865.88;;;1.58;100.00
10510;BME280;5303;53.266;10.410;2022-12-10T12:16:44;100860.72;;;1.55;100.00
10510;BME280;5303;53.266;10.410;2022-12-10T12:19:18;100865.03;;;1.58;100.00
10510;BME280;5303;53.266;10.410;2022-12-10T12:21:46;100860.47;;;1.34;100.00
10510;BME280;5303;53.266;10.410;2022-12-10T12:24:20;100860.56;;;1.46;100.00
10510;BME280;5303;53.266;10.410;2022-12-10T12:27:00;100868.25;;;1.50;100.00
10510;BME280;5303;53.266;10.410;2022-12-10T12:29:30;100868.88;;;1.54;100.00
10510;BME280;5303;53.266;10.410;2022-12-10T12:32:05;100857.19;;;1.55;100.00
10510;BME280;5303;53.266;10.410;2022-12-10T12:34:50;100866.41;;;1.51;100.00
10510;BME280;5303;53.266;10.410;2022-12-10T12:37:20;100864.41;;;1.54;100.00
10510;BME280;5303;53.266;10.410;2022-12-10T12:40:10;100861.53;;;1.45;100.00
10510;BME280;5303;53.266;10.410;2022-12-10T12:42:49;100864.41;;;1.54;100.00
10510;BME280;5303;53.266;10.410;2022-12-10T12:45:41;100864.84;;;1.48;100.00
10510;BME280;5303;53.266;10.410;2022-12-10T12:48:32;100867.00;;;1.43;100.00
10510;BME280;5303;53.266;10.410;2022-12-10T12:51:03;100872.72;;;1.38;100.00
10510;BME280;5303;53.266;10.410;2022-12-10T12:53:30;100875.25;;;1.16;100.00
10510;BME280;5303;53.266;10.410;2022-12-10T12:56:02;100874.56;;;1.25;100.00
10510;BME280;5303;53.266;10.410;2022-12-10T12:58:42;100872.13;;;1.22;100.00
10510;BME280;5303;53.266;10.410;2022-12-10T13:01:25;100873.66;;;1.37;100.00
10510;BME280;5303;53.266;10.410;2022-12-10T13:03:53;100872.50;;;1.42;100.00
10510;BME280;5303;53.266;10.410;2022-12-10T13:06:22;100869.72;;;1.30;100.00
10510;BME280;5303;53.266;10.410;2022-12-10T13:08:58;100870.34;;;1.34;100.00
10510;BME280;5303;53.266;10.410;2022-12-10T13:14:33;100871.63;;;1.41;100.00
10510;BME280;5303;53.266;10.410;2022-12-10T13:17:05;100868.59;;;1.46;100.00
10510;BME280;5303;53.266;10.410;2022-12-10T13:19:32;100876.34;;;1.37;100.00
10510;BME280;5303;53.266;10.410;2022-12-10T13:22:04;100875.72;;;1.34;100.00
10510;BME280;5303;53.266;10.410;2022-12-10T13:24:43;100880.91;;;1.24;100.00
10510;BME280;5303;53.266;10.410;2022-12-10T13:42:43;100890.19;;;1.07;100.00
10510;BME280;5303;53.266;10.410;2022-12-10T13:45:33;100896.41;;;1.08;100.00
10510;BME280;5303;53.266;10.410;2022-12-10T13:50:49;100884.38;;;1.13;100.00
10510;BME280;5303;53.266;10.410;2022-12-10T13:53:33;100894.03;;;1.16;100.00
10510;BME280;5303;53.266;10.410;2022-12-10T13:56:11;100895.56;;;1.07;100.00
10510;BME280;5303;53.266;10.410;2022-12-10T13:58:50;100886.97;;;1.02;100.00
10510;BME280;5303;53.266;10.410;2022-12-10T14:01:43;100895.22;;;1.12;100.00